sensor_id;sensor_type;location;lat;lon;timestamp;P1;durP1;ratioP1;P2;durP2;ratioP2
4835;SDS011;66719;51.226;6.902;2023-05-10T00:00:42;15.50;;;9.00;;
4835;SDS011;66719;51.226;6.902;2023-05-10T00:03:09;16.23;;;9.47;;
4835;SDS011;66719;51.226;6.902;2023-05-10T00:05:36;16.30;;;10.20;;
4835;SDS011;66719;51.226;6.902;2023-05-10T00:08:02;15.30;;;8.23;;
4835;SDS011;66719;51.226;6.902;2023-05-10T00:10:29;17.57;;;10.13;;
4835;SDS011;66719;51.226;6.902;2023-05-10T00:12:56;18.80;;;10.70;;
4835;SDS011;66719;51.226;6.902;2023-05-10T00:15:22;16.90;;;11.00;;
4835;SDS011;66719;51.226;6.902;2023-05-10T00:17:48;19.20;;;10.40;;
4835;SDS011;66719;51.226;6.902;2023-05-10T00:20:15;18.00;;;9.43;;
4835;SDS011;66719;51.226;6.902;2023-05-10T00:22:42;16.80;;;10.43;;
4835;SDS011;66719;51.226;6.902;2023-05-10T00:25:08;18.17;;;10.23;;
4835;SDS011;66719;51.226;6.902;2023-05-10T00:27:36;17.50;;;10.03;;
4835;SDS011;66719;51.226;6.902;2023-05-10T00:30:02;19.53;;;11.50;;
4835;SDS011;66719;51.226;6.902;2023-05-10T00:32:29;20.17;;;10.73;;
4835;SDS011;66719;51.226;6.902;2023-05-10T00:34:56;22.60;;;10.40;;
4835;SDS011;66719;51.226;6.902;2023-05-10T00:37:23;18.80;;;10.60;;
4835;SDS011;66719;51.226;6.902;2023-05-10T00:39:49;20.70;;;10.23;;
4835;SDS011;66719;51.226;6.902;2023-05-10T00:42:16;17.63;;;11.20;;
4835;SDS011;66719;51.226;6.902;2023-05-10T00:44:42;18.67;;;11.53;;
4835;SDS011;66719;51.226;6.902;2023-05-10T00:47:09;20.57;;;12.77;;
4835;SDS011;66719;51.226;6.902;2023-05-10T00:49:36;19.80;;;12.00;;
4835;SDS011;66719;51.226;6.902;2023-05-10T00:52:02;19.00;;;11.33;;
4835;SDS011;66719;51.226;6.902;2023-05-10T00:54:29;21.07;;;13.30;;
4835;SDS011;66719;51.226;6.902;2023-05-10T00:56:56;18.87;;;12.10;;
4835;SDS011;66719;51.226;6.902;2023-05-10T00:59:23;18.17;;;11.33;;
4835;SDS011;66719;51.226;6.902;2023-05-10T01:01:50;18.30;;;12.20;;
4835;SDS011;66719;51.226;6.902;2023-05-10T01:04:17;19.87;;;12.07;;
4835;SDS011;66719;51.226;6.902;2023-05-10T01:06:46;20.57;;;12.47;;
4835;SDS011;66719;51.226;6.902;2023-05-10T01:12:53;17.30;;;9.30;;
4835;SDS011;66719;51.226;6.902;2023-05-10T01:15:20;17.10;;;8.37;;
4835;SDS011;66719;51.226;6.902;2023-05-10T01:17:48;18.73;;;9.60;;
4835;SDS011;66719;51.226;6.902;2023-05-10T01:20:15;14.47;;;7.77;;
4835;SDS011;66719;51.226;6.902;2023-05-10T01:32:57;15.23;;;8.20;;
4835;SDS011;66719;51.226;6.902;2023-05-10T01:35:37;17.93;;;9.57;;
4835;SDS011;66719;51.226;6.902;2023-05-10T01:40:52;16.60;;;8.80;;
4835;SDS011;66719;51.226;6.902;2023-05-10T01:43:42;22.03;;;9.73;;
4835;SDS011;66719;51.226;6.902;2023-05-10T01:46:20;17.60;;;9.60;;
4835;SDS011;66719;51.226;6.902;2023-05-10T01:48:55;16.73;;;8.90;;
4835;SDS011;66719;51.226;6.902;2023-05-10T01:51:24;17.67;;;9.77;;
4835;SDS011;66719;51.226;6.902;2023-05-10T01:53:56;18.97;;;10.33;;
4835;SDS011;66719;51.226;6.902;2023-05-10T01:56:26;18.30;;;10.20;;
4835;SDS011;66719;51.226;6.902;2023-05-10T01:58:55;17.90;;;9.47;;
4835;SDS011;66719;51.226;6.902;2023-05-10T02:01:23;18.30;;;10.00;;
4835;SDS011;66719;51.226;6.902;2023-05-10T02:03:52;19.67;;;9.90;;
4835;SDS011;66719;51.226;6.902;2023-05-10T02:06:21;18.60;;;9.97;;
4835;SDS011;66719;51.226;6.902;2023-05-10T02:08:49;21.33;;;8.93;;
4835;SDS011;66719;51.226;6.902;2023-05-10T02:11:17;16.90;;;8.23;;
4835;SDS011;66719;51.226;6.902;2023-05-10T02:13:47;16.03;;;8.77;;
4835;SDS011;66719;51.226;6.902;2023-05-10T02:16:15;18.50;;;9.13;;
4835;SDS011;66719;51.226;6.902;2023-05-10T02:18:44;14.10;;;7.33;;
4835;SDS011;66719;51.226;6.902;2023-05-10T02:21:13;16.27;;;7.40;;
4835;SDS011;66719;51.226;6.902;2023-05-10T02:23:41;19.43;;;8.00;;
4835;SDS011;66719;51.226;6.902;2023-05-10T02:26:09;19.97;;;8.63;;
4835;SDS011;66719;51.226;6.902;2023-05-10T02:28:38;14.70;;;7.90;;
4835;SDS011;66719;51.226;6.902;2023-05-10T02:31:06;22.10;;;9.17;;
4835;SDS011;66719;51.226;6.902;2023-05-10T02:33:36;16.07;;;8.33;;
4835;SDS011;66719;51.226;6.902;2023-05-10T02:36:07;17.40;;;9.50;;
4835;SDS011;66719;51.226;6.902;2023-05-10T02:38:35;17.77;;;8.53;;
4835;SDS011;66719;51.226;6.902;2023-05-10T02:41:02;18.17;;;9.10;;
4835;SDS011;66719;51.226;6.902;2023-05-10T02:43:32;19.53;;;9.97;;
4835;SDS011;66719;51.226;6.902;2023-05-10T02:45:59;20.43;;;10.20;;
4835;SDS011;66719;51.226;6.902;2023-05-10T02:48:26;17.60;;;9.70;;
4835;SDS011;66719;51.226;6.902;2023-05-10T02:50:54;20.37;;;10.30;;
4835;SDS011;66719;51.226;6.902;2023-05-10T02:53:30;23.13;;;10.90;;
4835;SDS011;66719;51.226;6.902;2023-05-10T02:55:58;23.73;;;10.20;;
4835;SDS011;66719;51.226;6.902;2023-05-10T02:58:30;17.37;;;9.90;;
4835;SDS011;66719;51.226;6.902;2023-05-10T03:00:56;16.87;;;10.17;;
4835;SDS011;66719;51.226;6.902;2023-05-10T03:03:23;16.60;;;9.90;;
4835;SDS011;66719;51.226;6.902;2023-05-10T03:05:49;19.17;;;10.23;;
4835;SDS011;66719;51.226;6.902;2023-05-10T03:08:16;23.40;;;10.50;;
4835;SDS011;66719;51.226;6.902;2023-05-10T03:10:50;16.33;;;9.00;;
4835;SDS011;66719;51.226;6.902;2023-05-10T03:13:29;19.40;;;10.53;;
4835;SDS011;66719;51.226;6.902;2023-05-10T03:16:06;18.53;;;10.83;;
4835;SDS011;66719;51.226;6.902;2023-05-10T03:18:50;19.43;;;9.23;;
4835;SDS011;66719;51.226;6.902;2023-05-10T03:21:25;24.20;;;10.70;;
4835;SDS011;66719;51.226;6.902;2023-05-10T03:23:59;17.67;;;10.53;;
4835;SDS011;66719;51.226;6.902;2023-05-10T03:26:33;17.30;;;10.10;;
4835;SDS011;66719;51.226;6.902;2023-05-10T03:29:01;19.60;;;9.70;;
4835;SDS011;66719;51.226;6.902;2023-05-10T03:31:28;19.03;;;11.43;;
4835;SDS011;66719;51.226;6.902;2023-05-10T03:33:54;20.53;;;11.23;;
4835;SDS011;66719;51.226;6.902;2023-05-10T03:36:21;17.50;;;11.00;;
4835;SDS011;66719;51.226;6.902;2023-05-10T03:38:47;17.50;;;10.70;;
4835;SDS011;66719;51.226;6.902;2023-05-10T03:41:14;17.03;;;9.63;;
4835;SDS011;66719;51.226;6.902;2023-05-10T03:43:40;19.30;;;10.53;;
4835;SDS011;66719;51.226;6.902;2023-05-10T03:46:07;15.50;;;9.30;;
4835;SDS011;66719;51.226;6.902;2023-05-10T03:48:34;20.70;;;12.10;;
4835;SDS011;66719;51.226;6.902;2023-05-10T03:51:00;24.83;;;10.93;;
4835;SDS011;66719;51.226;6.902;2023-05-10T03:53:27;21.37;;;11.70;;
4835;SDS011;66719;51.226;6.902;2023-05-10T03:55:53;19.20;;;11.90;;
4835;SDS011;66719;51.226;6.902;2023-05-10T03:58:20;25.23;;;12.80;;
4835;SDS011;66719;51.226;6.902;2023-05-10T04:00:47;19.13;;;11.17;;
4835;SDS011;66719;51.226;6.902;2023-05-10T04:03:14;21.80;;;11.70;;
4835;SDS011;66719;51.226;6.902;2023-05-10T04:05:41;20.00;;;10.50;;
4835;SDS011;66719;51.226;6.902;2023-05-10T04:08:07;17.97;;;11.07;;
4835;SDS011;66719;51.226;6.902;2023-05-10T04:10:34;21.00;;;11.20;;
4835;SDS011;66719;51.226;6.902;2023-05-10T04:13:00;28.73;;;11.90;;
4835;SDS011;66719;51.226;6.902;2023-05-10T04:15:27;20.47;;;11.90;;
4835;SDS011;66719;51.226;6.902;2023-05-10T04:17:53;22.00;;;11.73;;
4835;SDS011;66719;51.226;6.902;2023-05-10T04:20:23;21.60;;;11.87;;
4835;SDS011;66719;51.226;6.902;2023-05-10T04:22:50;22.03;;;12.40;;
4835;SDS011;66719;51.226;6.902;2023-05-10T04:25:16;19.60;;;11.30;;
4835;SDS011;66719;51.226;6.902;2023-05-10T04:27:43;21.10;;;11.83;;
4835;SDS011;66719;51.226;6.902;2023-05-10T04:30:09;20.27;;;11.90;;
4835;SDS011;66719;51.226;6.902;2023-05-10T04:32:36;23.03;;;14.23;;
4835;SDS011;66719;51.226;6.902;2023-05-10T04:35:03;26.67;;;14.07;;
4835;SDS011;66719;51.226;6.902;2023-05-10T04:37:30;26.37;;;14.20;;
4835;SDS011;66719;51.226;6.902;2023-05-10T04:39:57;26.00;;;13.13;;
4835;SDS011;66719;51.226;6.902;2023-05-10T04:42:23;26.30;;;14.27;;
4835;SDS011;66719;51.226;6.902;2023-05-10T04:44:50;28.10;;;15.50;;
4835;SDS011;66719;51.226;6.902;2023-05-10T04:47:17;29.50;;;15.70;;
4835;SDS011;66719;51.226;6.902;2023-05-10T04:49:44;31.27;;;15.80;;
4835;SDS011;66719;51.226;6.902;2023-05-10T04:52:11;29.13;;;16.40;;
4835;SDS011;66719;51.226;6.902;2023-05-10T04:54:37;27.50;;;16.17;;
4835;SDS011;66719;51.226;6.902;2023-05-10T04:57:04;33.07;;;17.60;;
4835;SDS011;66719;51.226;6.902;2023-05-10T04:59:30;32.90;;;17.33;;
4835;SDS011;66719;51.226;6.902;2023-05-10T05:01:57;32.97;;;17.90;;
4835;SDS011;66719;51.226;6.902;2023-05-10T05:04:23;39.77;;;20.57;;
4835;SDS011;66719;51.226;6.902;2023-05-10T05:06:50;37.93;;;21.33;;
4835;SDS011;66719;51.226;6.902;2023-05-10T05:09:19;35.10;;;18.23;;
4835;SDS011;66719;51.226;6.902;2023-05-10T05:11:45;34.80;;;20.03;;
4835;SDS011;66719;51.226;6.902;2023-05-10T05:14:12;34.67;;;19.87;;
4835;SDS011;66719;51.226;6.902;2023-05-10T05:16:38;41.83;;;20.27;;
4835;SDS011;66719;51.226;6.902;2023-05-10T05:19:05;31.37;;;18.80;;
4835;SDS011;66719;51.226;6.902;2023-05-10T05:21:32;34.90;;;18.87;;
4835;SDS011;66719;51.226;6.902;2023-05-10T05:23:58;33.83;;;19.70;;
4835;SDS011;66719;51.226;6.902;2023-05-10T05:26:26;39.53;;;21.80;;
4835;SDS011;66719;51.226;6.902;2023-05-10T05:28:52;46.73;;;24.13;;
4835;SDS011;66719;51.226;6.902;2023-05-10T05:31:20;38.57;;;21.07;;
4835;SDS011;66719;51.226;6.902;2023-05-10T05:33:47;39.83;;;20.87;;
4835;SDS011;66719;51.226;6.902;2023-05-10T05:36:14;36.17;;;20.73;;
4835;SDS011;66719;51.226;6.902;2023-05-10T05:38:40;37.97;;;21.07;;
4835;SDS011;66719;51.226;6.902;2023-05-10T05:41:07;37.03;;;20.50;;
4835;SDS011;66719;51.226;6.902;2023-05-10T05:43:33;40.70;;;19.90;;
4835;SDS011;66719;51.226;6.902;2023-05-10T05:46:03;39.13;;;21.60;;
4835;SDS011;66719;51.226;6.902;2023-05-10T05:48:30;38.60;;;21.80;;
4835;SDS011;66719;51.226;6.902;2023-05-10T05:50:57;37.07;;;20.77;;
4835;SDS011;66719;51.226;6.902;2023-05-10T05:53:24;36.10;;;18.77;;
4835;SDS011;66719;51.226;6.902;2023-05-10T05:55:54;32.50;;;20.60;;
4835;SDS011;66719;51.226;6.902;2023-05-10T05:58:22;33.53;;;17.30;;
4835;SDS011;66719;51.226;6.902;2023-05-10T06:00:49;30.47;;;16.40;;
4835;SDS011;66719;51.226;6.902;2023-05-10T06:03:15;31.80;;;17.17;;
4835;SDS011;66719;51.226;6.902;2023-05-10T06:05:42;27.17;;;16.07;;
4835;SDS011;66719;51.226;6.902;2023-05-10T06:08:09;31.90;;;16.23;;
4835;SDS011;66719;51.226;6.902;2023-05-10T06:10:36;25.17;;;14.97;;
4835;SDS011;66719;51.226;6.902;2023-05-10T06:13:02;30.17;;;15.73;;
4835;SDS011;66719;51.226;6.902;2023-05-10T06:15:29;33.87;;;17.37;;
4835;SDS011;66719;51.226;6.902;2023-05-10T06:17:56;27.23;;;15.30;;
4835;SDS011;66719;51.226;6.902;2023-05-10T06:20:22;30.90;;;15.67;;
4835;SDS011;66719;51.226;6.902;2023-05-10T06:22:49;29.80;;;15.20;;
4835;SDS011;66719;51.226;6.902;2023-05-10T06:25:15;32.47;;;14.00;;
4835;SDS011;66719;51.226;6.902;2023-05-10T06:27:44;29.60;;;14.73;;
4835;SDS011;66719;51.226;6.902;2023-05-10T06:30:16;29.00;;;14.83;;
4835;SDS011;66719;51.226;6.902;2023-05-10T06:32:42;26.70;;;14.97;;
4835;SDS011;66719;51.226;6.902;2023-05-10T06:35:10;25.70;;;15.77;;
4835;SDS011;66719;51.226;6.902;2023-05-10T06:37:36;30.57;;;14.73;;
4835;SDS011;66719;51.226;6.902;2023-05-10T06:40:03;30.40;;;15.27;;
4835;SDS011;66719;51.226;6.902;2023-05-10T06:42:30;35.60;;;15.63;;
4835;SDS011;66719;51.226;6.902;2023-05-10T06:44:57;34.90;;;15.40;;
4835;SDS011;66719;51.226;6.902;2023-05-10T06:47:23;32.87;;;16.90;;
4835;SDS011;66719;51.226;6.902;2023-05-10T06:49:50;30.90;;;15.10;;
4835;SDS011;66719;51.226;6.902;2023-05-10T06:52:17;26.70;;;16.00;;
4835;SDS011;66719;51.226;6.902;2023-05-10T06:54:43;30.80;;;15.17;;
4835;SDS011;66719;51.226;6.902;2023-05-10T06:57:10;27.40;;;16.40;;
4835;SDS011;66719;51.226;6.902;2023-05-10T06:59:55;29.47;;;16.57;;
4835;SDS011;66719;51.226;6.902;2023-05-10T07:02:22;29.77;;;16.30;;
4835;SDS011;66719;51.226;6.902;2023-05-10T07:04:49;30.53;;;16.57;;
4835;SDS011;66719;51.226;6.902;2023-05-10T07:07:18;26.97;;;14.60;;
4835;SDS011;66719;51.226;6.902;2023-05-10T07:09:45;24.97;;;14.43;;
4835;SDS011;66719;51.226;6.902;2023-05-10T07:12:11;28.73;;;14.97;;
4835;SDS011;66719;51.226;6.902;2023-05-10T07:14:40;31.73;;;14.40;;
4835;SDS011;66719;51.226;6.902;2023-05-10T07:17:07;31.10;;;14.70;;
4835;SDS011;66719;51.226;6.902;2023-05-10T07:19:33;27.70;;;15.30;;
4835;SDS011;66719;51.226;6.902;2023-05-10T07:22:00;29.37;;;15.07;;
4835;SDS011;66719;51.226;6.902;2023-05-10T07:24:27;26.80;;;14.80;;
4835;SDS011;66719;51.226;6.902;2023-05-10T07:26:53;28.47;;;15.90;;
4835;SDS011;66719;51.226;6.902;2023-05-10T07:29:19;36.73;;;17.67;;
4835;SDS011;66719;51.226;6.902;2023-05-10T07:31:46;38.30;;;19.00;;
4835;SDS011;66719;51.226;6.902;2023-05-10T07:34:13;35.47;;;18.03;;
4835;SDS011;66719;51.226;6.902;2023-05-10T07:36:39;42.77;;;18.83;;
4835;SDS011;66719;51.226;6.902;2023-05-10T07:39:06;39.97;;;19.50;;
4835;SDS011;66719;51.226;6.902;2023-05-10T07:41:32;42.10;;;19.43;;
4835;SDS011;66719;51.226;6.902;2023-05-10T07:44:01;39.80;;;18.47;;
4835;SDS011;66719;51.226;6.902;2023-05-10T07:46:27;40.07;;;18.57;;
4835;SDS011;66719;51.226;6.902;2023-05-10T07:48:54;45.20;;;19.03;;
4835;SDS011;66719;51.226;6.902;2023-05-10T07:51:21;40.07;;;19.43;;
4835;SDS011;66719;51.226;6.902;2023-05-10T07:53:47;39.77;;;17.73;;
4835;SDS011;66719;51.226;6.902;2023-05-10T07:56:27;38.23;;;16.43;;
4835;SDS011;66719;51.226;6.902;2023-05-10T07:58:55;36.30;;;16.87;;
4835;SDS011;66719;51.226;6.902;2023-05-10T08:01:23;33.40;;;17.40;;
4835;SDS011;66719;51.226;6.902;2023-05-10T08:03:49;38.30;;;17.53;;
4835;SDS011;66719;51.226;6.902;2023-05-10T08:06:18;31.37;;;15.00;;
4835;SDS011;66719;51.226;6.902;2023-05-10T08:08:46;30.30;;;13.80;;
4835;SDS011;66719;51.226;6.902;2023-05-10T08:11:19;30.70;;;13.20;;
4835;SDS011;66719;51.226;6.902;2023-05-10T08:13:47;29.70;;;14.37;;
4835;SDS011;66719;51.226;6.902;2023-05-10T08:16:14;27.50;;;15.00;;
4835;SDS011;66719;51.226;6.902;2023-05-10T08:18:42;28.80;;;13.50;;
4835;SDS011;66719;51.226;6.902;2023-05-10T08:21:10;27.30;;;13.90;;
4835;SDS011;66719;51.226;6.902;2023-05-10T08:23:37;34.07;;;17.47;;
4835;SDS011;66719;51.226;6.902;2023-05-10T08:26:04;40.50;;;19.43;;
4835;SDS011;66719;51.226;6.902;2023-05-10T08:28:30;40.10;;;20.67;;
4835;SDS011;66719;51.226;6.902;2023-05-10T08:30:57;43.10;;;20.37;;
4835;SDS011;66719;51.226;6.902;2023-05-10T08:33:24;47.17;;;22.67;;
4835;SDS011;66719;51.226;6.902;2023-05-10T08:35:51;44.30;;;22.80;;
4835;SDS011;66719;51.226;6.902;2023-05-10T08:38:17;51.27;;;25.50;;
4835;SDS011;66719;51.226;6.902;2023-05-10T08:40:44;55.87;;;26.80;;
4835;SDS011;66719;51.226;6.902;2023-05-10T08:43:12;58.70;;;27.40;;
4835;SDS011;66719;51.226;6.902;2023-05-10T08:45:41;55.80;;;26.30;;
4835;SDS011;66719;51.226;6.902;2023-05-10T08:48:10;54.40;;;28.33;;
4835;SDS011;66719;51.226;6.902;2023-05-10T08:50:38;52.93;;;27.00;;
4835;SDS011;66719;51.226;6.902;2023-05-10T08:53:06;61.87;;;27.47;;
4835;SDS011;66719;51.226;6.902;2023-05-10T08:55:36;54.60;;;29.47;;
4835;SDS011;66719;51.226;6.902;2023-05-10T08:58:04;56.80;;;28.93;;
4835;SDS011;66719;51.226;6.902;2023-05-10T09:00:32;54.50;;;28.23;;
4835;SDS011;66719;51.226;6.902;2023-05-10T09:02:59;56.90;;;29.07;;
4835;SDS011;66719;51.226;6.902;2023-05-10T09:05:26;53.83;;;28.50;;
4835;SDS011;66719;51.226;6.902;2023-05-10T09:07:53;56.10;;;25.53;;
4835;SDS011;66719;51.226;6.902;2023-05-10T09:10:20;45.70;;;24.73;;
4835;SDS011;66719;51.226;6.902;2023-05-10T09:12:47;44.93;;;23.03;;
4835;SDS011;66719;51.226;6.902;2023-05-10T09:15:17;40.50;;;21.97;;
4835;SDS011;66719;51.226;6.902;2023-05-10T09:17:46;43.33;;;24.00;;
4835;SDS011;66719;51.226;6.902;2023-05-10T09:20:13;52.80;;;24.63;;
4835;SDS011;66719;51.226;6.902;2023-05-10T09:22:40;44.67;;;23.80;;
4835;SDS011;66719;51.226;6.902;2023-05-10T09:25:07;49.00;;;25.00;;
4835;SDS011;66719;51.226;6.902;2023-05-10T09:27:35;50.20;;;24.83;;
4835;SDS011;66719;51.226;6.902;2023-05-10T09:30:03;49.73;;;24.77;;
4835;SDS011;66719;51.226;6.902;2023-05-10T09:32:37;48.93;;;26.37;;
4835;SDS011;66719;51.226;6.902;2023-05-10T09:35:18;44.33;;;24.10;;
4835;SDS011;66719;51.226;6.902;2023-05-10T09:37:46;48.00;;;23.97;;
4835;SDS011;66719;51.226;6.902;2023-05-10T09:40:18;46.90;;;22.90;;
4835;SDS011;66719;51.226;6.902;2023-05-10T09:42:53;48.70;;;24.13;;
4835;SDS011;66719;51.226;6.902;2023-05-10T09:45:22;45.27;;;22.23;;
4835;SDS011;66719;51.226;6.902;2023-05-10T09:47:50;36.60;;;18.90;;
4835;SDS011;66719;51.226;6.902;2023-05-10T09:50:16;35.60;;;19.20;;
4835;SDS011;66719;51.226;6.902;2023-05-10T09:52:50;40.07;;;17.60;;
4835;SDS011;66719;51.226;6.902;2023-05-10T09:55:22;34.50;;;17.37;;
4835;SDS011;66719;51.226;6.902;2023-05-10T09:57:49;32.77;;;17.50;;
4835;SDS011;66719;51.226;6.902;2023-05-10T10:00:25;42.90;;;17.70;;
4835;SDS011;66719;51.226;6.902;2023-05-10T10:02:56;31.60;;;17.33;;
4835;SDS011;66719;51.226;6.902;2023-05-10T10:07:58;39.83;;;17.03;;
4835;SDS011;66719;51.226;6.902;2023-05-10T10:10:26;32.20;;;16.17;;
4835;SDS011;66719;51.226;6.902;2023-05-10T10:12:53;28.47;;;16.47;;
4835;SDS011;66719;51.226;6.902;2023-05-10T10:15:21;27.33;;;15.77;;
4835;SDS011;66719;51.226;6.902;2023-05-10T10:17:49;32.60;;;17.27;;
4835;SDS011;66719;51.226;6.902;2023-05-10T10:20:17;29.93;;;14.50;;
4835;SDS011;66719;51.226;6.902;2023-05-10T10:22:45;27.83;;;14.43;;
4835;SDS011;66719;51.226;6.902;2023-05-10T10:25:14;24.97;;;14.97;;
4835;SDS011;66719;51.226;6.902;2023-05-10T10:27:45;29.07;;;15.30;;
4835;SDS011;66719;51.226;6.902;2023-05-10T10:30:20;28.40;;;14.70;;
4835;SDS011;66719;51.226;6.902;2023-05-10T10:35:54;26.10;;;13.50;;
4835;SDS011;66719;51.226;6.902;2023-05-10T10:38:21;28.73;;;15.33;;
4835;SDS011;66719;51.226;6.902;2023-05-10T10:40:49;31.27;;;15.97;;
4835;SDS011;66719;51.226;6.902;2023-05-10T10:43:28;26.63;;;15.13;;
4835;SDS011;66719;51.226;6.902;2023-05-10T10:48:47;28.50;;;16.33;;
4835;SDS011;66719;51.226;6.902;2023-05-10T10:51:17;30.33;;;15.37;;
4835;SDS011;66719;51.226;6.902;2023-05-10T10:53:43;32.53;;;15.63;;
4835;SDS011;66719;51.226;6.902;2023-05-10T10:56:11;28.73;;;15.70;;
4835;SDS011;66719;51.226;6.902;2023-05-10T10:58:39;29.30;;;15.33;;
4835;SDS011;66719;51.226;6.902;2023-05-10T11:01:10;26.33;;;14.00;;
4835;SDS011;66719;51.226;6.902;2023-05-10T11:06:29;26.57;;;13.83;;
4835;SDS011;66719;51.226;6.902;2023-05-10T11:08:57;39.40;;;14.13;;
4835;SDS011;66719;51.226;6.902;2023-05-10T11:11:24;29.00;;;13.63;;
4835;SDS011;66719;51.226;6.902;2023-05-10T11:13:51;24.10;;;12.90;;
4835;SDS011;66719;51.226;6.902;2023-05-10T11:16:24;25.77;;;13.60;;
4835;SDS011;66719;51.226;6.902;2023-05-10T11:21:29;25.40;;;12.90;;
4835;SDS011;66719;51.226;6.902;2023-05-10T11:23:57;24.73;;;13.67;;
4835;SDS011;66719;51.226;6.902;2023-05-10T11:26:26;24.77;;;12.70;;
4835;SDS011;66719;51.226;6.902;2023-05-10T11:28:57;27.60;;;12.90;;
4835;SDS011;66719;51.226;6.902;2023-05-10T11:31:28;25.03;;;13.13;;
4835;SDS011;66719;51.226;6.902;2023-05-10T11:33:56;27.43;;;15.43;;
4835;SDS011;66719;51.226;6.902;2023-05-10T11:38:52;32.40;;;15.93;;
4835;SDS011;66719;51.226;6.902;2023-05-10T11:41:20;28.60;;;15.93;;
4835;SDS011;66719;51.226;6.902;2023-05-10T11:43:51;27.33;;;15.00;;
4835;SDS011;66719;51.226;6.902;2023-05-10T11:46:20;28.40;;;15.60;;
4835;SDS011;66719;51.226;6.902;2023-05-10T11:48:49;29.70;;;16.53;;
4835;SDS011;66719;51.226;6.902;2023-05-10T11:51:20;37.13;;;17.47;;
4835;SDS011;66719;51.226;6.902;2023-05-10T11:53:49;31.00;;;17.20;;
4835;SDS011;66719;51.226;6.902;2023-05-10T11:56:16;31.50;;;16.63;;
4835;SDS011;66719;51.226;6.902;2023-05-10T11:58:43;31.63;;;18.37;;
4835;SDS011;66719;51.226;6.902;2023-05-10T12:01:09;28.33;;;18.00;;
4835;SDS011;66719;51.226;6.902;2023-05-10T12:03:37;32.27;;;16.90;;
4835;SDS011;66719;51.226;6.902;2023-05-10T12:06:04;31.27;;;17.60;;
4835;SDS011;66719;51.226;6.902;2023-05-10T12:08:31;28.03;;;15.90;;
4835;SDS011;66719;51.226;6.902;2023-05-10T12:11:07;28.37;;;16.53;;
4835;SDS011;66719;51.226;6.902;2023-05-10T12:13:39;27.47;;;16.03;;
4835;SDS011;66719;51.226;6.902;2023-05-10T12:16:16;32.30;;;17.63;;
4835;SDS011;66719;51.226;6.902;2023-05-10T12:18:54;30.30;;;16.30;;
4835;SDS011;66719;51.226;6.902;2023-05-10T12:21:25;27.93;;;16.40;;
4835;SDS011;66719;51.226;6.902;2023-05-10T12:23:54;33.90;;;15.73;;
4835;SDS011;66719;51.226;6.902;2023-05-10T12:26:25;29.13;;;14.73;;
4835;SDS011;66719;51.226;6.902;2023-05-10T12:28:55;25.90;;;14.23;;
4835;SDS011;66719;51.226;6.902;2023-05-10T12:31:53;26.57;;;14.60;;
4835;SDS011;66719;51.226;6.902;2023-05-10T12:34:31;24.77;;;13.97;;
4835;SDS011;66719;51.226;6.902;2023-05-10T12:36:59;25.67;;;14.60;;
4835;SDS011;66719;51.226;6.902;2023-05-10T12:39:26;30.43;;;15.00;;
4835;SDS011;66719;51.226;6.902;2023-05-10T12:42:04;26.87;;;14.40;;
4835;SDS011;66719;51.226;6.902;2023-05-10T12:44:31;28.97;;;14.67;;
4835;SDS011;66719;51.226;6.902;2023-05-10T12:46:57;24.77;;;14.77;;
4835;SDS011;66719;51.226;6.902;2023-05-10T12:49:24;24.47;;;15.40;;
4835;SDS011;66719;51.226;6.902;2023-05-10T12:51:50;26.83;;;15.63;;
4835;SDS011;66719;51.226;6.902;2023-05-10T12:54:17;23.50;;;14.00;;
4835;SDS011;66719;51.226;6.902;2023-05-10T12:56:43;24.57;;;13.43;;
4835;SDS011;66719;51.226;6.902;2023-05-10T12:59:10;23.53;;;14.57;;
4835;SDS011;66719;51.226;6.902;2023-05-10T13:01:36;24.47;;;14.90;;
4835;SDS011;66719;51.226;6.902;2023-05-10T13:04:03;26.20;;;14.23;;
4835;SDS011;66719;51.226;6.902;2023-05-10T13:06:29;27.40;;;15.50;;
4835;SDS011;66719;51.226;6.902;2023-05-10T13:08:56;28.63;;;16.40;;
4835;SDS011;66719;51.226;6.902;2023-05-10T13:11:23;28.20;;;16.80;;
4835;SDS011;66719;51.226;6.902;2023-05-10T13:13:50;31.53;;;18.30;;
4835;SDS011;66719;51.226;6.902;2023-05-10T13:16:17;32.33;;;18.80;;
4835;SDS011;66719;51.226;6.902;2023-05-10T13:18:44;29.50;;;16.80;;
4835;SDS011;66719;51.226;6.902;2023-05-10T13:21:10;31.43;;;18.20;;
4835;SDS011;66719;51.226;6.902;2023-05-10T13:23:37;29.50;;;17.67;;
4835;SDS011;66719;51.226;6.902;2023-05-10T13:26:03;30.37;;;17.97;;
4835;SDS011;66719;51.226;6.902;2023-05-10T13:28:30;30.33;;;17.67;;
4835;SDS011;66719;51.226;6.902;2023-05-10T13:30:56;32.63;;;18.27;;
4835;SDS011;66719;51.226;6.902;2023-05-10T13:33:23;32.50;;;19.30;;
4835;SDS011;66719;51.226;6.902;2023-05-10T13:35:50;34.00;;;20.70;;
4835;SDS011;66719;51.226;6.902;2023-05-10T13:38:18;34.03;;;20.43;;
4835;SDS011;66719;51.226;6.902;2023-05-10T13:40:47;31.67;;;19.30;;
4835;SDS011;66719;51.226;6.902;2023-05-10T13:43:14;30.50;;;18.60;;
4835;SDS011;66719;51.226;6.902;2023-05-10T13:45:41;37.20;;;18.97;;
4835;SDS011;66719;51.226;6.902;2023-05-10T13:48:07;33.80;;;19.60;;
4835;SDS011;66719;51.226;6.902;2023-05-10T13:50:34;32.93;;;19.90;;
4835;SDS011;66719;51.226;6.902;2023-05-10T13:53:00;32.33;;;20.00;;
4835;SDS011;66719;51.226;6.902;2023-05-10T13:55:27;34.20;;;20.03;;
4835;SDS011;66719;51.226;6.902;2023-05-10T13:57:54;33.43;;;20.50;;
4835;SDS011;66719;51.226;6.902;2023-05-10T14:00:21;34.80;;;21.60;;
4835;SDS011;66719;51.226;6.902;2023-05-10T14:02:47;34.40;;;20.30;;
4835;SDS011;66719;51.226;6.902;2023-05-10T14:05:14;36.07;;;20.93;;
4835;SDS011;66719;51.226;6.902;2023-05-10T14:07:43;32.40;;;20.30;;
4835;SDS011;66719;51.226;6.902;2023-05-10T14:10:09;28.63;;;17.97;;
4835;SDS011;66719;51.226;6.902;2023-05-10T14:12:36;31.90;;;18.57;;
4835;SDS011;66719;51.226;6.902;2023-05-10T14:15:03;32.23;;;18.30;;
4835;SDS011;66719;51.226;6.902;2023-05-10T14:17:33;30.57;;;16.33;;
4835;SDS011;66719;51.226;6.902;2023-05-10T14:19:59;31.03;;;18.00;;
4835;SDS011;66719;51.226;6.902;2023-05-10T14:22:26;30.10;;;16.43;;
4835;SDS011;66719;51.226;6.902;2023-05-10T14:24:52;26.53;;;14.73;;
4835;SDS011;66719;51.226;6.902;2023-05-10T14:27:19;22.30;;;12.73;;
4835;SDS011;66719;51.226;6.902;2023-05-10T14:29:51;24.37;;;13.37;;
4835;SDS011;66719;51.226;6.902;2023-05-10T14:32:19;21.63;;;11.83;;
4835;SDS011;66719;51.226;6.902;2023-05-10T14:34:46;22.20;;;12.17;;
4835;SDS011;66719;51.226;6.902;2023-05-10T14:37:13;22.60;;;11.47;;
4835;SDS011;66719;51.226;6.902;2023-05-10T14:39:39;21.87;;;12.60;;
4835;SDS011;66719;51.226;6.902;2023-05-10T14:42:06;21.57;;;11.77;;
4835;SDS011;66719;51.226;6.902;2023-05-10T14:44:33;21.53;;;11.30;;
4835;SDS011;66719;51.226;6.902;2023-05-10T14:46:59;22.23;;;11.97;;
4835;SDS011;66719;51.226;6.902;2023-05-10T14:49:25;23.43;;;11.80;;
4835;SDS011;66719;51.226;6.902;2023-05-10T14:51:52;21.60;;;11.80;;
4835;SDS011;66719;51.226;6.902;2023-05-10T14:54:19;22.67;;;13.17;;
4835;SDS011;66719;51.226;6.902;2023-05-10T14:56:45;23.27;;;13.50;;
4835;SDS011;66719;51.226;6.902;2023-05-10T14:59:12;23.20;;;12.90;;
4835;SDS011;66719;51.226;6.902;2023-05-10T15:01:39;24.17;;;12.20;;
4835;SDS011;66719;51.226;6.902;2023-05-10T15:04:08;22.13;;;13.60;;
4835;SDS011;66719;51.226;6.902;2023-05-10T15:06:35;22.03;;;12.40;;
4835;SDS011;66719;51.226;6.902;2023-05-10T15:09:03;22.23;;;11.83;;
4835;SDS011;66719;51.226;6.902;2023-05-10T15:11:29;25.27;;;12.87;;
4835;SDS011;66719;51.226;6.902;2023-05-10T15:13:56;20.90;;;12.43;;